sensor_id;sensor_type;location;lat;lon;timestamp;pressure;altitude;pressure_sealevel;temperature;humidity
44481;BME280;30184;42.018;23.670;2022-11-15T00:01:16;92035.72;;;0.76;87.49
44481;BME280;30184;42.018;23.670;2022-11-15T00:04:04;91980.44;;;0.54;87.74
44481;BME280;30184;42.018;23.670;2022-11-15T00:06:52;91957.13;;;0.28;87.61
44481;BME280;30184;42.018;23.670;2022-11-15T00:09:40;92089.47;;;1.43;87.99
44481;BME280;30184;42.018;23.670;2022-11-15T00:12:32;91927.22;;;-0.04;87.99
44481;BME280;30184;42.018;23.670;2022-11-15T00:15:19;92092.09;;;1.39;88.23
44481;BME280;30184;42.018;23.670;2022-11-15T00:18:12;92079.09;;;1.38;88.14
44481;BME280;30184;42.018;23.670;2022-11-15T00:21:04;91848.38;;;-0.24;87.87
44481;BME280;30184;42.018;23.670;2022-11-15T00:23:52;92123.72;;;1.34;88.30
44481;BME280;30184;42.018;23.670;2022-11-15T00:26:41;92105.34;;;1.32;88.27
44481;BME280;30184;42.018;23.670;2022-11-15T00:29:31;91945.50;;;0.17;88.27
44481;BME280;30184;42.018;23.670;2022-11-15T00:32:19;92049.28;;;0.87;88.43
44481;BME280;30184;42.018;23.670;2022-11-15T00:35:07;91960.50;;;0.48;88.65
44481;BME280;30184;42.018;23.670;2022-11-15T00:37:56;92112.50;;;1.25;88.81
44481;BME280;30184;42.018;23.670;2022-11-15T00:40:44;92091.81;;;1.22;88.69
44481;BME280;30184;42.018;23.670;2022-11-15T00:43:32;92070.03;;;1.20;88.67
44481;BME280;30184;42.018;23.670;2022-11-15T00:46:22;91825.84;;;-0.92;88.42
44481;BME280;30184;42.018;23.670;2022-11-15T00:49:10;91865.50;;;-0.25;88.48
44481;BME280;30184;42.018;23.670;2022-11-15T00:51:58;91908.94;;;-0.25;88.84
44481;BME280;30184;42.018;23.670;2022-11-15T00:54:46;91609.00;;;-2.17;88.48
44481;BME280;30184;42.018;23.670;2022-11-15T00:57:33;92002.31;;;0.17;88.98
44481;BME280;30184;42.018;23.670;2022-11-15T01:00:22;92162.63;;;1.08;89.11
44481;BME280;30184;42.018;23.670;2022-11-15T01:03:12;91896.28;;;-0.51;89.03
44481;BME280;30184;42.018;23.670;2022-11-15T01:05:59;92067.47;;;1.04;89.41
44481;BME280;30184;42.018;23.670;2022-11-15T01:08:47;91984.56;;;0.06;89.37
44481;BME280;30184;42.018;23.670;2022-11-15T01:11:36;91972.56;;;-0.04;89.33
44481;BME280;30184;42.018;23.670;2022-11-15T01:14:24;91978.34;;;-0.60;89.29
44481;BME280;30184;42.018;23.670;2022-11-15T01:17:12;91808.66;;;-0.75;89.36
44481;BME280;30184;42.018;23.670;2022-11-15T01:20:01;92015.13;;;0.31;89.32
44481;BME280;30184;42.018;23.670;2022-11-15T01:22:49;91983.72;;;0.02;89.46
44481;BME280;30184;42.018;23.670;2022-11-15T01:25:37;91848.28;;;-0.93;89.25
44481;BME280;30184;42.018;23.670;2022-11-15T01:28:30;91836.91;;;-1.09;89.54
44481;BME280;30184;42.018;23.670;2022-11-15T01:31:19;92067.22;;;0.63;89.74
44481;BME280;30184;42.018;23.670;2022-11-15T01:34:08;91954.91;;;0.11;89.85
44481;BME280;30184;42.018;23.670;2022-11-15T01:36:57;92051.91;;;0.83;89.86
44481;BME280;30184;42.018;23.670;2022-11-15T01:39:46;91883.66;;;-0.54;89.84
44481;BME280;30184;42.018;23.670;2022-11-15T01:42:34;92046.91;;;0.59;89.85
44481;BME280;30184;42.018;23.670;2022-11-15T01:45:23;91784.81;;;-1.83;89.82
44481;BME280;30184;42.018;23.670;2022-11-15T01:48:11;91907.59;;;-0.15;89.81
44481;BME280;30184;42.018;23.670;2022-11-15T01:51:02;92040.25;;;0.72;90.06
44481;BME280;30184;42.018;23.670;2022-11-15T01:53:58;91920.84;;;-0.42;89.93
44481;BME280;30184;42.018;23.670;2022-11-15T01:56:53;92048.97;;;0.69;90.04
44481;BME280;30184;42.018;23.670;2022-11-15T01:59:44;91950.91;;;-0.22;90.20
44481;BME280;30184;42.018;23.670;2022-11-15T02:02:34;92050.44;;;0.66;90.17
44481;BME280;30184;42.018;23.670;2022-11-15T02:05:24;92068.41;;;0.24;90.11
44481;BME280;30184;42.018;23.670;2022-11-15T02:08:12;92046.63;;;0.64;90.40
44481;BME280;30184;42.018;23.670;2022-11-15T02:11:09;92001.63;;;0.01;90.19
44481;BME280;30184;42.018;23.670;2022-11-15T02:13:58;92056.88;;;0.62;90.64
44481;BME280;30184;42.018;23.670;2022-11-15T02:16:57;92048.44;;;0.60;90.76
44481;BME280;30184;42.018;23.670;2022-11-15T02:20:17;91780.38;;;-1.41;90.49
44481;BME280;30184;42.018;23.670;2022-11-15T02:26:57;91876.38;;;-1.15;90.54
44481;BME280;30184;42.018;23.670;2022-11-15T02:30:11;92094.84;;;0.52;90.76
44481;BME280;30184;42.018;23.670;2022-11-15T02:33:03;92043.69;;;0.50;91.05
44481;BME280;30184;42.018;23.670;2022-11-15T02:36:00;91946.22;;;-0.28;90.84
44481;BME280;30184;42.018;23.670;2022-11-15T02:38:59;92039.03;;;0.47;90.94
44481;BME280;30184;42.018;23.670;2022-11-15T02:41:54;92004.81;;;-0.32;90.87
44481;BME280;30184;42.018;23.670;2022-11-15T02:44:45;92174.38;;;0.43;90.82
44481;BME280;30184;42.018;23.670;2022-11-15T02:47:41;92080.94;;;0.43;91.08
44481;BME280;30184;42.018;23.670;2022-11-15T02:50:32;92037.03;;;0.40;91.06
44481;BME280;30184;42.018;23.670;2022-11-15T02:53:24;91993.94;;;-0.23;91.19
44481;BME280;30184;42.018;23.670;2022-11-15T02:56:13;91830.34;;;-1.34;91.25
44481;BME280;30184;42.018;23.670;2022-11-15T02:59:24;91967.25;;;-0.81;91.54
44481;BME280;30184;42.018;23.670;2022-11-15T03:02:28;92037.19;;;0.28;91.57
44481;BME280;30184;42.018;23.670;2022-11-15T03:05:25;91722.78;;;-2.73;91.48
44481;BME280;30184;42.018;23.670;2022-11-15T03:08:21;91934.59;;;-0.40;91.65
44481;BME280;30184;42.018;23.670;2022-11-15T03:11:15;92039.38;;;0.22;91.87
44481;BME280;30184;42.018;23.670;2022-11-15T03:14:12;91989.03;;;-0.41;91.69
44481;BME280;30184;42.018;23.670;2022-11-15T03:17:09;91819.19;;;-1.75;91.43
44481;BME280;30184;42.018;23.670;2022-11-15T03:20:04;91806.63;;;-1.59;91.59
44481;BME280;30184;42.018;23.670;2022-11-15T03:23:00;92044.25;;;0.17;91.66
44481;BME280;30184;42.018;23.670;2022-11-15T03:26:16;92036.59;;;0.15;91.73
44481;BME280;30184;42.018;23.670;2022-11-15T03:29:11;91955.91;;;-0.78;91.61
44481;BME280;30184;42.018;23.670;2022-11-15T03:32:05;91739.16;;;-2.20;91.69
44481;BME280;30184;42.018;23.670;2022-11-15T03:34:57;91891.41;;;-1.41;91.62
44481;BME280;30184;42.018;23.670;2022-11-15T03:37:51;91906.69;;;-0.84;91.87
44481;BME280;30184;42.018;23.670;2022-11-15T03:40:47;92028.38;;;0.05;91.69
44481;BME280;30184;42.018;23.670;2022-11-15T03:43:49;91849.75;;;-1.15;91.72
44481;BME280;30184;42.018;23.670;2022-11-15T03:46:46;91884.59;;;-1.39;91.62
44481;BME280;30184;42.018;23.670;2022-11-15T03:49:38;91946.84;;;-0.73;91.68
44481;BME280;30184;42.018;23.670;2022-11-15T03:52:31;91956.19;;;-0.45;91.69
44481;BME280;30184;42.018;23.670;2022-11-15T03:55:21;92005.38;;;-0.04;91.78
44481;BME280;30184;42.018;23.670;2022-11-15T03:58:11;92009.16;;;-0.05;91.90
44481;BME280;30184;42.018;23.670;2022-11-15T04:00:58;91816.91;;;-1.76;91.60
44481;BME280;30184;42.018;23.670;2022-11-15T04:03:46;91912.81;;;-0.99;91.96
44481;BME280;30184;42.018;23.670;2022-11-15T04:06:35;91914.59;;;-0.88;91.89
44481;BME280;30184;42.018;23.670;2022-11-15T04:09:23;91807.09;;;-1.72;91.90
44481;BME280;30184;42.018;23.670;2022-11-15T04:12:11;91738.69;;;-1.91;91.86
44481;BME280;30184;42.018;23.670;2022-11-15T04:15:21;91858.16;;;-1.13;91.99
44481;BME280;30184;42.018;23.670;2022-11-15T04:18:09;91863.38;;;-1.35;91.65
44481;BME280;30184;42.018;23.670;2022-11-15T04:20:57;91947.66;;;-1.08;92.06
44481;BME280;30184;42.018;23.670;2022-11-15T04:24:03;91892.84;;;-1.09;92.11
44481;BME280;30184;42.018;23.670;2022-11-15T04:27:00;91989.78;;;-0.21;92.15
44481;BME280;30184;42.018;23.670;2022-11-15T04:29:48;91749.66;;;-1.93;92.03
44481;BME280;30184;42.018;23.670;2022-11-15T04:32:37;92010.72;;;-0.23;92.23
44481;BME280;30184;42.018;23.670;2022-11-15T04:35:26;91768.22;;;-1.96;92.06
44481;BME280;30184;42.018;23.670;2022-11-15T04:38:14;92009.84;;;-0.27;92.25
44481;BME280;30184;42.018;23.670;2022-11-15T04:41:03;91993.09;;;-0.27;92.37
44481;BME280;30184;42.018;23.670;2022-11-15T04:43:51;92004.47;;;-0.30;92.49
44481;BME280;30184;42.018;23.670;2022-11-15T04:46:39;91980.38;;;-0.34;92.50
44481;BME280;30184;42.018;23.670;2022-11-15T04:49:28;92011.19;;;-0.37;92.52
44481;BME280;30184;42.018;23.670;2022-11-15T04:52:16;91974.63;;;-0.36;92.68
44481;BME280;30184;42.018;23.670;2022-11-15T04:55:05;91648.13;;;-2.52;92.38
44481;BME280;30184;42.018;23.670;2022-11-15T04:57:58;92015.38;;;-0.55;92.73
44481;BME280;30184;42.018;23.670;2022-11-15T05:00:46;91803.41;;;-1.83;92.72
44481;BME280;30184;42.018;23.670;2022-11-15T05:03:35;92002.13;;;-0.51;92.86
44481;BME280;30184;42.018;23.670;2022-11-15T05:06:38;92007.59;;;-0.63;92.83
44481;BME280;30184;42.018;23.670;2022-11-15T05:09:30;91794.31;;;-2.17;92.85
44481;BME280;30184;42.018;23.670;2022-11-15T05:12:18;91765.94;;;-2.92;92.67
44481;BME280;30184;42.018;23.670;2022-11-15T05:15:07;91965.03;;;-0.41;93.14
44481;BME280;30184;42.018;23.670;2022-11-15T05:17:57;91968.81;;;-0.42;93.14
44481;BME280;30184;42.018;23.670;2022-11-15T05:20:47;91827.03;;;-1.28;92.94
44481;BME280;30184;42.018;23.670;2022-11-15T05:23:38;91960.13;;;-0.39;93.47
44481;BME280;30184;42.018;23.670;2022-11-15T05:26:34;91866.56;;;-1.30;93.17
44481;BME280;30184;42.018;23.670;2022-11-15T05:29:22;91891.25;;;-1.14;93.33
44481;BME280;30184;42.018;23.670;2022-11-15T05:32:11;91915.97;;;-1.13;93.47
44481;BME280;30184;42.018;23.670;2022-11-15T05:35:00;91971.63;;;-0.34;93.65
44481;BME280;30184;42.018;23.670;2022-11-15T05:37:48;91749.78;;;-2.05;93.28
44481;BME280;30184;42.018;23.670;2022-11-15T05:40:38;91967.81;;;-0.33;93.71
44481;BME280;30184;42.018;23.670;2022-11-15T05:43:27;91775.06;;;-1.60;93.65
44481;BME280;30184;42.018;23.670;2022-11-15T05:46:16;91973.25;;;-0.30;93.81
44481;BME280;30184;42.018;23.670;2022-11-15T05:49:11;91803.03;;;-1.85;93.67
44481;BME280;30184;42.018;23.670;2022-11-15T05:52:05;91809.50;;;-1.48;93.68
44481;BME280;30184;42.018;23.670;2022-11-15T05:54:56;91970.69;;;-0.23;93.70
44481;BME280;30184;42.018;23.670;2022-11-15T05:57:47;91860.13;;;-1.09;93.70
44481;BME280;30184;42.018;23.670;2022-11-15T06:00:36;91973.06;;;-0.18;93.87
44481;BME280;30184;42.018;23.670;2022-11-15T06:03:26;92043.28;;;-0.14;93.84
44481;BME280;30184;42.018;23.670;2022-11-15T06:06:14;91974.69;;;-0.13;93.85
44481;BME280;30184;42.018;23.670;2022-11-15T06:09:03;91980.03;;;-0.13;93.88
44481;BME280;30184;42.018;23.670;2022-11-15T06:11:52;91829.22;;;-1.33;94.01
44481;BME280;30184;42.018;23.670;2022-11-15T06:14:42;91975.53;;;-0.09;94.25
44481;BME280;30184;42.018;23.670;2022-11-15T06:17:31;91874.78;;;-1.00;94.07
44481;BME280;30184;42.018;23.670;2022-11-15T06:20:20;91970.34;;;-0.02;94.26
44481;BME280;30184;42.018;23.670;2022-11-15T06:23:09;91769.88;;;-1.53;94.22
44481;BME280;30184;42.018;23.670;2022-11-15T06:25:58;91553.66;;;-2.69;93.77
44481;BME280;30184;42.018;23.670;2022-11-15T06:28:48;91852.97;;;-0.67;94.20
44481;BME280;30184;42.018;23.670;2022-11-15T06:31:51;91988.94;;;-0.06;94.28
44481;BME280;30184;42.018;23.670;2022-11-15T06:34:40;92009.81;;;0.12;94.44
44481;BME280;30184;42.018;23.670;2022-11-15T06:37:28;92090.38;;;0.17;94.43
44481;BME280;30184;42.018;23.670;2022-11-15T06:40:19;91962.81;;;0.26;94.71
44481;BME280;30184;42.018;23.670;2022-11-15T06:43:07;91895.22;;;-0.04;94.62
44481;BME280;30184;42.018;23.670;2022-11-15T06:45:55;91709.91;;;-2.05;94.39
44481;BME280;30184;42.018;23.670;2022-11-15T06:48:44;91790.81;;;-0.94;94.11
44481;BME280;30184;42.018;23.670;2022-11-15T06:51:33;91955.75;;;1.13;94.15
44481;BME280;30184;42.018;23.670;2022-11-15T06:54:21;91986.28;;;1.38;93.39
44481;BME280;30184;42.018;23.670;2022-11-15T06:57:09;91962.13;;;1.61;92.51
44481;BME280;30184;42.018;23.670;2022-11-15T06:59:57;91995.41;;;1.67;91.55
44481;BME280;30184;42.018;23.670;2022-11-15T07:02:44;91855.44;;;1.23;90.67
44481;BME280;30184;42.018;23.670;2022-11-15T07:05:34;91849.44;;;1.29;89.75
44481;BME280;30184;42.018;23.670;2022-11-15T07:08:23;91791.19;;;1.12;88.60
44481;BME280;30184;42.018;23.670;2022-11-15T07:11:11;91763.00;;;0.85;87.27
44481;BME280;30184;42.018;23.670;2022-11-15T07:13:59;91732.59;;;1.30;86.22
44481;BME280;30184;42.018;23.670;2022-11-15T07:16:48;91820.66;;;2.44;85.98
44481;BME280;30184;42.018;23.670;2022-11-15T07:19:36;91785.50;;;2.49;85.20
44481;BME280;30184;42.018;23.670;2022-11-15T07:22:26;91653.44;;;1.66;84.06
44481;BME280;30184;42.018;23.670;2022-11-15T07:25:13;91774.66;;;3.00;83.25
44481;BME280;30184;42.018;23.670;2022-11-15T07:28:02;91925.69;;;4.27;82.04
44481;BME280;30184;42.018;23.670;2022-11-15T07:30:55;91914.59;;;4.49;80.89
44481;BME280;30184;42.018;23.670;2022-11-15T07:33:44;91944.13;;;4.32;79.85
44481;BME280;30184;42.018;23.670;2022-11-15T07:36:32;91912.31;;;4.76;78.82
44481;BME280;30184;42.018;23.670;2022-11-15T07:39:21;91894.63;;;4.58;77.97
44481;BME280;30184;42.018;23.670;2022-11-15T07:42:09;91897.31;;;4.75;77.46
44481;BME280;30184;42.018;23.670;2022-11-15T07:45:14;91893.47;;;4.98;76.52
44481;BME280;30184;42.018;23.670;2022-11-15T07:48:02;91874.19;;;5.31;75.69
44481;BME280;30184;42.018;23.670;2022-11-15T07:50:50;91924.81;;;5.75;73.32
44481;BME280;30184;42.018;23.670;2022-11-15T07:53:38;91627.97;;;4.07;71.72
44481;BME280;30184;42.018;23.670;2022-11-15T07:56:27;91959.41;;;5.91;70.71
44481;BME280;30184;42.018;23.670;2022-11-15T07:59:15;91896.91;;;6.24;70.03
44481;BME280;30184;42.018;23.670;2022-11-15T08:02:03;91694.28;;;4.32;69.00
44481;BME280;30184;42.018;23.670;2022-11-15T08:04:52;91862.59;;;6.32;69.34
44481;BME280;30184;42.018;23.670;2022-11-15T08:07:40;91875.44;;;6.10;68.01
44481;BME280;30184;42.018;23.670;2022-11-15T08:10:28;91619.81;;;4.43;66.86
44481;BME280;30184;42.018;23.670;2022-11-15T08:13:21;91825.75;;;5.35;66.68
44481;BME280;30184;42.018;23.670;2022-11-15T08:16:09;91836.78;;;5.61;66.71
44481;BME280;30184;42.018;23.670;2022-11-15T08:18:58;91670.56;;;5.14;65.76
44481;BME280;30184;42.018;23.670;2022-11-15T08:21:47;91823.78;;;6.70;65.94
44481;BME280;30184;42.018;23.670;2022-11-15T08:24:35;91770.72;;;6.60;65.37
44481;BME280;30184;42.018;23.670;2022-11-15T08:27:22;91634.06;;;5.68;65.00
44481;BME280;30184;42.018;23.670;2022-11-15T08:30:12;91854.47;;;7.62;63.97
44481;BME280;30184;42.018;23.670;2022-11-15T08:33:02;91847.28;;;7.82;63.03
44481;BME280;30184;42.018;23.670;2022-11-15T08:35:50;91787.81;;;7.56;62.68
44481;BME280;30184;42.018;23.670;2022-11-15T08:38:37;91848.09;;;8.10;61.85
44481;BME280;30184;42.018;23.670;2022-11-15T08:41:28;91716.63;;;7.12;60.74
44481;BME280;30184;42.018;23.670;2022-11-15T08:44:17;91787.00;;;7.89;60.59
44481;BME280;30184;42.018;23.670;2022-11-15T08:47:07;91720.97;;;7.33;59.83
44481;BME280;30184;42.018;23.670;2022-11-15T08:49:55;91676.84;;;7.46;59.45
44481;BME280;30184;42.018;23.670;2022-11-15T08:52:42;91773.31;;;8.53;59.41
44481;BME280;30184;42.018;23.670;2022-11-15T08:55:30;91568.59;;;6.19;58.52
44481;BME280;30184;42.018;23.670;2022-11-15T08:58:18;91744.88;;;8.45;57.77
44481;BME280;30184;42.018;23.670;2022-11-15T09:01:13;91825.50;;;9.44;57.76
44481;BME280;30184;42.018;23.670;2022-11-15T09:04:05;91584.44;;;7.85;57.12
44481;BME280;30184;42.018;23.670;2022-11-15T09:06:52;91668.59;;;8.54;56.27
44481;BME280;30184;42.018;23.670;2022-11-15T09:09:40;91677.31;;;8.85;56.07
44481;BME280;30184;42.018;23.670;2022-11-15T09:12:28;91899.47;;;10.03;55.08
44481;BME280;30184;42.018;23.670;2022-11-15T09:15:17;91726.94;;;9.18;54.90
44481;BME280;30184;42.018;23.670;2022-11-15T09:18:06;91331.34;;;7.00;55.21
44481;BME280;30184;42.018;23.670;2022-11-15T09:20:57;91786.22;;;10.63;55.55
44481;BME280;30184;42.018;23.670;2022-11-15T09:23:50;91772.97;;;10.81;55.04
44481;BME280;30184;42.018;23.670;2022-11-15T09:26:42;91765.50;;;11.02;53.68
44481;BME280;30184;42.018;23.670;2022-11-15T09:29:34;91673.59;;;9.90;53.39
44481;BME280;30184;42.018;23.670;2022-11-15T09:32:23;91809.88;;;10.79;52.31
44481;BME280;30184;42.018;23.670;2022-11-15T09:35:11;91753.44;;;11.32;52.79
44481;BME280;30184;42.018;23.670;2022-11-15T09:38:00;91527.81;;;9.82;52.58
44481;BME280;30184;42.018;23.670;2022-11-15T09:40:53;91745.81;;;11.55;52.31
44481;BME280;30184;42.018;23.670;2022-11-15T09:43:53;91738.91;;;11.67;51.43
44481;BME280;30184;42.018;23.670;2022-11-15T09:46:52;91565.47;;;9.92;51.38
44481;BME280;30184;42.018;23.670;2022-11-15T09:49:54;91719.81;;;11.83;49.39
44481;BME280;30184;42.018;23.670;2022-11-15T09:52:34;91722.00;;;12.01;50.47
44481;BME280;30184;42.018;23.670;2022-11-15T09:55:09;91509.59;;;9.98;49.89
44481;BME280;30184;42.018;23.670;2022-11-15T09:57:46;91820.50;;;12.21;49.65
44481;BME280;30184;42.018;23.670;2022-11-15T10:00:21;91577.97;;;11.47;49.73
44481;BME280;30184;42.018;23.670;2022-11-15T10:03:14;91319.00;;;8.70;47.96
44481;BME280;30184;42.018;23.670;2022-11-15T10:05:46;91540.59;;;11.38;47.95
44481;BME280;30184;42.018;23.670;2022-11-15T10:08:28;91404.00;;;10.36;47.70
44481;BME280;30184;42.018;23.670;2022-11-15T10:11:06;91386.56;;;9.51;47.65
44481;BME280;30184;42.018;23.670;2022-11-15T10:14:00;91683.75;;;12.68;47.75
44481;BME280;30184;42.018;23.670;2022-11-15T10:19:41;91669.22;;;12.84;47.03
44481;BME280;30184;42.018;23.670;2022-11-15T10:22:24;91663.84;;;12.93;46.29
44481;BME280;30184;42.018;23.670;2022-11-15T10:25:09;91654.81;;;12.96;46.06
44481;BME280;30184;42.018;23.670;2022-11-15T10:27:42;91638.91;;;12.94;46.14
44481;BME280;30184;42.018;23.670;2022-11-15T10:30:15;91645.34;;;13.09;45.52
44481;BME280;30184;42.018;23.670;2022-11-15T10:33:24;91648.81;;;13.23;45.67
44481;BME280;30184;42.018;23.670;2022-11-15T10:36:21;91360.25;;;10.85;45.33
44481;BME280;30184;42.018;23.670;2022-11-15T10:38:57;91421.44;;;11.96;45.08
44481;BME280;30184;42.018;23.670;2022-11-15T10:41:36;91417.38;;;11.79;44.50
44481;BME280;30184;42.018;23.670;2022-11-15T10:44:28;91468.78;;;12.43;45.27
44481;BME280;30184;42.018;23.670;2022-11-15T10:47:21;91730.72;;;13.63;45.04
44481;BME280;30184;42.018;23.670;2022-11-15T10:49:58;91664.44;;;13.75;45.95
44481;BME280;30184;42.018;23.670;2022-11-15T10:52:30;91682.78;;;13.74;44.54
44481;BME280;30184;42.018;23.670;2022-11-15T10:55:05;91609.44;;;13.76;44.22
44481;BME280;30184;42.018;23.670;2022-11-15T10:57:49;91596.44;;;13.80;43.96
44481;BME280;30184;42.018;23.670;2022-11-15T11:00:32;91598.91;;;13.88;44.18
44481;BME280;30184;42.018;23.670;2022-11-15T11:03:04;91590.31;;;13.98;45.00
44481;BME280;30184;42.018;23.670;2022-11-15T11:05:37;91159.56;;;10.69;45.35
44481;BME280;30184;42.018;23.670;2022-11-15T11:08:22;91326.56;;;12.20;44.32
44481;BME280;30184;42.018;23.670;2022-11-15T11:10:53;91508.69;;;13.33;43.95
44481;BME280;30184;42.018;23.670;2022-11-15T11:13:28;91737.63;;;14.29;43.96
44481;BME280;30184;42.018;23.670;2022-11-15T11:19:02;91564.44;;;14.30;44.05
44481;BME280;30184;42.018;23.670;2022-11-15T11:21:49;91337.41;;;12.42;44.62
44481;BME280;30184;42.018;23.670;2022-11-15T11:24:25;91571.34;;;13.95;44.75
44481;BME280;30184;42.018;23.670;2022-11-15T11:27:11;91633.25;;;14.16;44.29
44481;BME280;30184;42.018;23.670;2022-11-15T11:29:54;91447.66;;;13.89;44.33
44481;BME280;30184;42.018;23.670;2022-11-15T11:35:26;91422.34;;;13.70;43.88
44481;BME280;30184;42.018;23.670;2022-11-15T11:38:10;91444.63;;;13.96;42.56
44481;BME280;30184;42.018;23.670;2022-11-15T11:40:57;91525.50;;;14.75;42.01
44481;BME280;30184;42.018;23.670;2022-11-15T11:43:36;91236.91;;;12.48;42.05
44481;BME280;30184;42.018;23.670;2022-11-15T11:46:19;91337.94;;;13.48;43.04
44481;BME280;30184;42.018;23.670;2022-11-15T11:48:58;91541.09;;;14.29;42.92
44481;BME280;30184;42.018;23.670;2022-11-15T11:51:34;91565.13;;;14.89;43.83
44481;BME280;30184;42.018;23.670;2022-11-15T11:54:11;91259.78;;;13.27;43.51
44481;BME280;30184;42.018;23.670;2022-11-15T11:56:44;91509.41;;;14.96;43.71
44481;BME280;30184;42.018;23.670;2022-11-15T11:59:22;91228.50;;;12.82;44.20
44481;BME280;30184;42.018;23.670;2022-11-15T12:01:52;91321.56;;;12.90;44.06
44481;BME280;30184;42.018;23.670;2022-11-15T12:04:27;91482.41;;;14.88;44.47
44481;BME280;30184;42.018;23.670;2022-11-15T12:07:01;91504.69;;;15.05;44.45
44481;BME280;30184;42.018;23.670;2022-11-15T12:09:35;91496.50;;;15.05;44.49
44481;BME280;30184;42.018;23.670;2022-11-15T12:12:09;91495.28;;;15.06;44.88
44481;BME280;30184;42.018;23.670;2022-11-15T12:14:44;91491.78;;;15.06;45.16
44481;BME280;30184;42.018;23.670;2022-11-15T12:17:16;91488.00;;;14.85;44.89
44481;BME280;30184;42.018;23.670;2022-11-15T12:19:48;91337.63;;;13.92;45.39
44481;BME280;30184;42.018;23.670;2022-11-15T12:22:20;91475.06;;;15.04;45.70
44481;BME280;30184;42.018;23.670;2022-11-15T12:24:56;91471.94;;;14.87;46.62
44481;BME280;30184;42.018;23.670;2022-11-15T12:27:32;91426.13;;;14.18;48.00
44481;BME280;30184;42.018;23.670;2022-11-15T12:30:11;91392.03;;;14.32;47.39
44481;BME280;30184;42.018;23.670;2022-11-15T12:32:50;91467.38;;;14.84;47.44
44481;BME280;30184;42.018;23.670;2022-11-15T12:35:25;91355.69;;;13.98;47.07
44481;BME280;30184;42.018;23.670;2022-11-15T12:37:56;91357.19;;;14.27;46.68
44481;BME280;30184;42.018;23.670;2022-11-15T12:40:30;91362.34;;;14.15;46.68
44481;BME280;30184;42.018;23.670;2022-11-15T12:45:59;91448.38;;;14.99;46.47
44481;BME280;30184;42.018;23.670;2022-11-15T12:49:00;90944.44;;;11.39;47.22
44481;BME280;30184;42.018;23.670;2022-11-15T12:55:00;91450.34;;;14.98;47.99
44481;BME280;30184;42.018;23.670;2022-11-15T12:57:43;91346.13;;;13.75;47.25
44481;BME280;30184;42.018;23.670;2022-11-15T13:00:43;91063.41;;;11.93;47.37
44481;BME280;30184;42.018;23.670;2022-11-15T13:03:28;91381.00;;;14.08;47.73
44481;BME280;30184;42.018;23.670;2022-11-15T13:09:50;91438.81;;;14.94;47.71
44481;BME280;30184;42.018;23.670;2022-11-15T13:12:51;91435.50;;;14.90;48.00
44481;BME280;30184;42.018;23.670;2022-11-15T13:18:36;91437.06;;;14.73;47.56
44481;BME280;30184;42.018;23.670;2022-11-15T13:21:23;91354.53;;;13.23;48.19
44481;BME280;30184;42.018;23.670;2022-11-15T13:24:13;91078.41;;;11.67;48.92
44481;BME280;30184;42.018;23.670;2022-11-15T13:26:45;91190.09;;;12.89;48.11
44481;BME280;30184;42.018;23.670;2022-11-15T13:29:18;91342.03;;;13.62;49.32
44481;BME280;30184;42.018;23.670;2022-11-15T13:31:48;91459.38;;;14.26;49.85
44481;BME280;30184;42.018;23.670;2022-11-15T13:34:26;91323.38;;;13.24;50.06
44481;BME280;30184;42.018;23.670;2022-11-15T13:37:29;91434.03;;;14.16;50.30
44481;BME280;30184;42.018;23.670;2022-11-15T13:40:24;91438.28;;;14.08;50.74
44481;BME280;30184;42.018;23.670;2022-11-15T13:42:55;91437.03;;;14.00;51.05
44481;BME280;30184;42.018;23.670;2022-11-15T13:45:26;91236.03;;;12.51;50.94
44481;BME280;30184;42.018;23.670;2022-11-15T13:47:57;91422.63;;;13.72;51.26
44481;BME280;30184;42.018;23.670;2022-11-15T13:50:29;91427.00;;;13.51;52.22
44481;BME280;30184;42.018;23.670;2022-11-15T13:53:03;91413.69;;;12.82;52.54
44481;BME280;30184;42.018;23.670;2022-11-15T13:55:34;91295.53;;;11.31;52.81
44481;BME280;30184;42.018;23.670;2022-11-15T13:58:04;91431.47;;;12.96;53.90
44481;BME280;30184;42.018;23.670;2022-11-15T14:00:37;91436.09;;;12.86;54.23
44481;BME280;30184;42.018;23.670;2022-11-15T14:03:15;91406.19;;;12.43;54.52
44481;BME280;30184;42.018;23.670;2022-11-15T14:06:02;91203.41;;;10.80;55.18
44481;BME280;30184;42.018;23.670;2022-11-15T14:08:34;91345.63;;;11.77;55.42
44481;BME280;30184;42.018;23.670;2022-11-15T14:11:16;91228.66;;;10.90;55.41
44481;BME280;30184;42.018;23.670;2022-11-15T14:14:04;91173.44;;;10.11;56.08
44481;BME280;30184;42.018;23.670;2022-11-15T14:16:42;91436.63;;;12.07;56.34
44481;BME280;30184;42.018;23.670;2022-11-15T14:19:22;91443.94;;;11.97;57.03
44481;BME280;30184;42.018;23.670;2022-11-15T14:22:17;91332.69;;;10.87;57.75
44481;BME280;30184;42.018;23.670;2022-11-15T14:25:07;91445.13;;;11.62;58.37
44481;BME280;30184;42.018;23.670;2022-11-15T14:27:44;91447.09;;;11.48;58.93
44481;BME280;30184;42.018;23.670;2022-11-15T14:30:14;91438.22;;;11.35;59.64
44481;BME280;30184;42.018;23.670;2022-11-15T14:32:47;91440.16;;;11.22;60.07
44481;BME280;30184;42.018;23.670;2022-11-15T14:35:19;91435.84;;;11.12;60.54
44481;BME280;30184;42.018;23.670;2022-11-15T14:37:49;91322.34;;;9.64;60.88
44481;BME280;30184;42.018;23.670;2022-11-15T14:40:20;91445.94;;;10.86;61.62
44481;BME280;30184;42.018;23.670;2022-11-15T14:42:50;91441.91;;;10.78;61.92
44481;BME280;30184;42.018;23.670;2022-11-15T14:45:21;91354.66;;;10.00;61.98
44481;BME280;30184;42.018;23.670;2022-11-15T14:47:55;91447.22;;;10.56;62.44
44481;BME280;30184;42.018;23.670;2022-11-15T14:50:24;91444.69;;;10.49;62.88
44481;BME280;30184;42.018;23.670;2022-11-15T14:52:55;91447.59;;;10.42;63.24
44481;BME280;30184;42.018;23.670;2022-11-15T14:55:26;91202.25;;;8.55;63.57
44481;BME280;30184;42.018;23.670;2022-11-15T14:57:56;91301.25;;;9.14;63.82
44481;BME280;30184;42.018;23.670;2022-11-15T15:00:25;91301.34;;;9.10;64.78